createdAt,value
2022-09-14T00:01:27.808Z,18.46
2022-09-14T00:03:56.778Z,18.42
2022-09-14T00:06:24.178Z,18.41
2022-09-14T00:08:52.894Z,18.41
2022-09-14T00:11:23.386Z,18.39
2022-09-14T00:13:50.470Z,18.35
2022-09-14T00:16:20.488Z,18.39
2022-09-14T00:18:56.108Z,18.38
2022-09-14T00:21:23.647Z,18.48
2022-09-14T00:23:50.479Z,18.47
2022-09-14T00:26:22.190Z,18.33
2022-09-14T00:28:53.588Z,17.96
2022-09-14T00:31:21.362Z,17.82
2022-09-14T00:33:50.342Z,17.96
2022-09-14T00:36:22.899Z,18.02
2022-09-14T00:38:53.100Z,18.05
2022-09-14T00:41:23.506Z,18.02
2022-09-14T00:44:27.473Z,17.99
2022-09-14T00:46:57.165Z,17.97
2022-09-14T00:49:29.137Z,17.98
2022-09-14T00:52:09.623Z,18.00
2022-09-14T00:54:42.344Z,17.95
2022-09-14T00:57:09.417Z,18.04
2022-09-14T00:59:39.192Z,18.05
2022-09-14T01:02:09.306Z,17.87
2022-09-14T01:04:36.858Z,17.88
2022-09-14T01:07:43.117Z,17.91
2022-09-14T01:10:24.693Z,17.96
2022-09-14T01:13:37.288Z,17.79
2022-09-14T01:16:21.761Z,17.61
2022-09-14T01:18:56.846Z,17.54
2022-09-14T01:21:29.279Z,17.67
2022-09-14T01:23:59.413Z,17.73
2022-09-14T01:26:37.382Z,17.81
2022-09-14T01:29:15.876Z,17.82
2022-09-14T01:31:57.833Z,17.80
2022-09-14T01:34:32.159Z,17.75
2022-09-14T01:37:23.943Z,17.73
2022-09-14T01:39:58.262Z,17.73
2022-09-14T01:42:27.316Z,17.75
2022-09-14T01:44:58.965Z,17.78
2022-09-14T01:47:35.755Z,17.73
2022-09-14T01:50:13.823Z,17.79
2022-09-14T01:52:46.321Z,17.78
2022-09-14T01:55:22.792Z,17.76
2022-09-14T01:57:58.397Z,17.74
2022-09-14T02:00:24.889Z,17.78
2022-09-14T02:03:05.239Z,17.79
2022-09-14T02:05:41.078Z,17.80
2022-09-14T02:08:08.568Z,17.77
2022-09-14T02:10:35.429Z,17.73
2022-09-14T02:13:02.294Z,17.72
2022-09-14T02:15:28.754Z,17.54
2022-09-14T02:17:55.416Z,17.34
2022-09-14T02:20:28.885Z,17.24
2022-09-14T02:22:55.777Z,17.31
2022-09-14T02:25:22.491Z,17.43
2022-09-14T02:27:48.975Z,17.47
2022-09-14T02:30:17.080Z,17.56
2022-09-14T02:32:58.858Z,17.38
2022-09-14T02:35:37.595Z,17.32
2022-09-14T02:38:29.846Z,17.29
2022-09-14T02:41:11.478Z,17.29
2022-09-14T02:43:52.961Z,17.25
2022-09-14T02:46:25.885Z,17.41
2022-09-14T02:48:58.274Z,17.38
2022-09-14T02:51:32.503Z,17.16
2022-09-14T02:54:08.804Z,17.07
2022-09-14T02:56:37.253Z,17.12
2022-09-14T02:59:03.821Z,17.20
2022-09-14T03:01:30.483Z,17.16
2022-09-14T03:03:56.916Z,17.13
2022-09-14T03:06:23.402Z,17.15
2022-09-14T03:08:50.189Z,17.20
2022-09-14T03:11:16.921Z,17.16
2022-09-14T03:13:44.444Z,17.31
2022-09-14T03:16:14.594Z,17.47
2022-09-14T03:18:41.452Z,17.59
2022-09-14T03:21:10.396Z,17.66
2022-09-14T03:23:42.495Z,17.74
2022-09-14T03:26:10.701Z,17.81
2022-09-14T03:28:37.729Z,17.79
2022-09-14T03:31:06.419Z,17.86
2022-09-14T03:33:33.522Z,17.86
2022-09-14T03:36:00.631Z,17.86
2022-09-14T03:38:30.179Z,17.82
2022-09-14T03:40:58.419Z,17.78
2022-09-14T03:43:25.208Z,17.75
2022-09-14T03:45:51.804Z,17.59
2022-09-14T03:48:19.045Z,17.53
2022-09-14T03:50:45.525Z,17.46
2022-09-14T03:53:13.725Z,17.39
2022-09-14T03:55:42.607Z,17.46
2022-09-14T03:58:09.076Z,17.45
2022-09-14T04:00:36.291Z,17.47
2022-09-14T04:03:03.501Z,17.41
2022-09-14T04:05:30.260Z,17.43
2022-09-14T04:07:57.307Z,17.46
2022-09-14T04:10:23.747Z,17.27
2022-09-14T04:12:51.327Z,16.97
2022-09-14T04:15:18.897Z,16.74
2022-09-14T04:17:45.597Z,16.79
2022-09-14T04:20:12.483Z,16.92
2022-09-14T04:22:39.397Z,16.99
2022-09-14T04:25:06.399Z,17.08
2022-09-14T04:27:33.251Z,17.17
2022-09-14T04:29:59.762Z,17.22
2022-09-14T04:32:28.743Z,17.27
2022-09-14T04:34:58.237Z,17.12
2022-09-14T04:37:25.644Z,17.03
2022-09-14T04:39:52.360Z,17.13
2022-09-14T04:42:19.404Z,17.10
2022-09-14T04:44:45.913Z,17.11
2022-09-14T04:47:13.040Z,17.08
2022-09-14T04:49:39.781Z,16.83
2022-09-14T04:52:08.021Z,16.67
2022-09-14T04:54:35.641Z,16.59
2022-09-14T04:57:02.190Z,16.72
2022-09-14T04:59:28.933Z,16.80
2022-09-14T05:01:55.534Z,16.88
2022-09-14T05:04:22.245Z,16.94
2022-09-14T05:06:50.328Z,17.00
2022-09-14T05:09:18.594Z,17.08
2022-09-14T05:11:46.350Z,17.07
2022-09-14T05:14:14.110Z,17.10
2022-09-14T05:16:42.751Z,17.15
2022-09-14T05:19:14.042Z,17.12
2022-09-14T05:21:40.752Z,17.14
2022-09-14T05:24:13.640Z,17.06
2022-09-14T05:26:41.199Z,17.04
2022-09-14T05:29:08.185Z,16.99
2022-09-14T05:31:35.187Z,16.93
2022-09-14T05:34:02.596Z,16.92
2022-09-14T05:36:36.573Z,17.02
2022-09-14T05:39:04.061Z,17.09
2022-09-14T05:41:30.980Z,17.06
2022-09-14T05:44:00.051Z,17.02
2022-09-14T05:46:27.083Z,16.97
2022-09-14T05:48:54.022Z,16.94
2022-09-14T05:51:23.691Z,16.89
2022-09-14T05:53:55.485Z,16.92
2022-09-14T05:56:23.825Z,16.90
2022-09-14T05:58:52.780Z,16.96
2022-09-14T06:01:25.169Z,17.00
2022-09-14T06:06:40.105Z,17.03
2022-09-14T06:09:06.913Z,17.02
2022-09-14T06:11:36.655Z,17.01
2022-09-14T06:14:07.600Z,16.98
2022-09-14T06:16:35.433Z,17.03
2022-09-14T06:19:02.505Z,17.00
2022-09-14T06:21:34.679Z,17.00
2022-09-14T06:24:04.777Z,17.01
2022-09-14T06:26:31.454Z,16.91
2022-09-14T06:28:58.611Z,16.87
2022-09-14T06:31:25.725Z,16.90
2022-09-14T06:33:55.388Z,16.88
2022-09-14T06:36:28.811Z,16.89
2022-09-14T06:38:57.498Z,16.95
2022-09-14T06:41:30.184Z,16.99
2022-09-14T06:44:03.364Z,17.03
2022-09-14T06:46:34.181Z,17.08
2022-09-14T06:49:11.559Z,17.15
2022-09-14T06:51:41.360Z,17.16
2022-09-14T06:54:11.004Z,17.20
2022-09-14T06:56:40.637Z,17.26
2022-09-14T06:59:13.638Z,17.34
2022-09-14T07:01:41.721Z,17.43
2022-09-14T07:04:09.573Z,17.49
2022-09-14T07:06:42.846Z,17.51
2022-09-14T07:09:12.975Z,17.59
2022-09-14T07:11:43.709Z,17.59
2022-09-14T07:14:12.872Z,17.55
2022-09-14T07:16:40.671Z,17.53
2022-09-14T07:19:11.398Z,17.59
2022-09-14T07:24:23.001Z,17.66
2022-09-14T07:29:35.195Z,17.73
2022-09-14T07:32:07.572Z,17.70
2022-09-14T07:34:45.336Z,17.73
2022-09-14T07:37:12.708Z,17.78
2022-09-14T07:39:40.829Z,17.77
2022-09-14T07:42:07.927Z,17.78
2022-09-14T07:44:35.546Z,17.82
2022-09-14T07:47:02.551Z,17.89
2022-09-14T07:49:30.389Z,17.97
2022-09-14T07:51:57.457Z,18.07
2022-09-14T07:54:24.418Z,18.11
2022-09-14T07:56:51.164Z,18.10
2022-09-14T07:59:35.005Z,18.06
2022-09-14T08:02:09.140Z,18.13
2022-09-14T08:04:42.680Z,18.23
2022-09-14T08:07:09.893Z,18.22
2022-09-14T08:09:39.113Z,18.23
2022-09-14T08:12:06.821Z,18.29
2022-09-14T08:14:33.695Z,18.41
2022-09-14T08:17:01.030Z,18.38
2022-09-14T08:19:29.109Z,18.22
2022-09-14T08:21:55.999Z,18.07
2022-09-14T08:24:24.332Z,18.10
2022-09-14T08:26:51.250Z,18.20
2022-09-14T08:29:19.556Z,18.33
2022-09-14T08:31:50.087Z,18.52
2022-09-14T08:34:19.894Z,18.54
2022-09-14T08:36:48.489Z,18.72
2022-09-14T08:39:17.444Z,18.72
2022-09-14T08:41:44.073Z,18.87
2022-09-14T08:44:17.291Z,18.88
2022-09-14T08:47:05.848Z,18.95
2022-09-14T08:50:11.531Z,19.01
2022-09-14T08:56:02.920Z,19.18
2022-09-14T08:58:57.784Z,19.20
2022-09-14T09:01:46.407Z,19.30
2022-09-14T09:04:34.328Z,19.41
2022-09-14T09:07:34.742Z,19.42
2022-09-14T09:10:05.465Z,19.57
2022-09-14T09:12:37.685Z,19.61
2022-09-14T09:18:28.492Z,19.48
2022-09-14T09:21:02.121Z,19.46
2022-09-14T09:23:31.193Z,19.52
2022-09-14T09:26:06.711Z,19.60
2022-09-14T09:28:34.062Z,19.65
2022-09-14T09:31:14.575Z,19.49
2022-09-14T09:33:42.539Z,19.26
2022-09-14T09:36:13.902Z,19.33
2022-09-14T09:38:44.505Z,19.51
2022-09-14T09:41:23.072Z,19.48
2022-09-14T09:44:12.157Z,19.41
2022-09-14T09:49:43.176Z,19.28
2022-09-14T09:52:15.822Z,19.31
2022-09-14T09:54:55.891Z,19.33
2022-09-14T09:57:40.131Z,19.33
2022-09-14T10:00:26.745Z,19.26
2022-09-14T10:03:03.148Z,19.33
2022-09-14T10:05:32.354Z,19.39
2022-09-14T10:08:02.057Z,19.42
2022-09-14T10:10:34.849Z,19.41
2022-09-14T10:13:03.878Z,19.39
2022-09-14T10:15:39.532Z,19.38
2022-09-14T10:18:37.789Z,19.42
2022-09-14T10:21:16.803Z,19.48
2022-09-14T10:23:44.270Z,19.35
2022-09-14T10:26:18.756Z,19.40
2022-09-14T10:28:49.022Z,19.44
2022-09-14T10:31:19.597Z,19.53
2022-09-14T10:33:53.845Z,19.59
2022-09-14T10:36:44.402Z,19.68
2022-09-14T10:39:32.368Z,19.74
2022-09-14T10:42:07.345Z,19.65
2022-09-14T10:44:59.752Z,19.69
2022-09-14T10:47:38.487Z,19.63
2022-09-14T10:50:08.179Z,19.79
2022-09-14T10:53:03.665Z,19.69
2022-09-14T10:55:47.103Z,19.70
2022-09-14T10:58:33.285Z,19.81
2022-09-14T11:01:08.968Z,19.66
2022-09-14T11:04:11.798Z,19.78
2022-09-14T11:07:14.598Z,19.56
2022-09-14T11:10:21.654Z,19.59
2022-09-14T11:13:26.086Z,19.78
2022-09-14T11:16:04.740Z,19.99
2022-09-14T11:18:53.453Z,20.24
2022-09-14T11:22:01.605Z,20.29
2022-09-14T11:24:57.469Z,20.31
2022-09-14T11:27:31.616Z,20.34
2022-09-14T11:30:05.033Z,20.41
2022-09-14T11:32:33.889Z,20.61
2022-09-14T11:35:14.371Z,20.54
2022-09-14T11:37:44.708Z,20.14
2022-09-14T11:40:56.837Z,20.06
2022-09-14T11:43:32.955Z,20.06
2022-09-14T11:46:08.600Z,20.12
2022-09-14T11:48:56.699Z,20.37
2022-09-14T11:51:33.286Z,20.51
2022-09-14T11:54:23.713Z,20.36
2022-09-14T11:56:57.372Z,20.38
2022-09-14T11:59:44.502Z,20.37
2022-09-14T12:02:41.770Z,20.26
2022-09-14T12:05:13.754Z,20.21
2022-09-14T12:07:43.324Z,20.10
2022-09-14T12:10:23.416Z,20.13
2022-09-14T12:13:21.359Z,20.38
2022-09-14T12:15:48.137Z,20.56
2022-09-14T12:18:24.914Z,20.71
2022-09-14T12:21:03.270Z,20.96
2022-09-14T12:23:45.541Z,20.97
2022-09-14T12:26:12.318Z,21.10
2022-09-14T12:28:48.509Z,21.20
2022-09-14T12:31:37.414Z,21.36
2022-09-14T12:34:08.550Z,21.42
2022-09-14T12:36:38.115Z,21.48
2022-09-14T12:39:22.409Z,21.69
2022-09-14T12:41:48.824Z,21.77
2022-09-14T12:44:34.287Z,21.87
2022-09-14T12:47:25.628Z,21.65
2022-09-14T12:49:54.135Z,21.43
2022-09-14T12:52:28.131Z,21.46
2022-09-14T12:55:19.342Z,21.58
2022-09-14T12:57:58.059Z,21.44
2022-09-14T13:00:26.960Z,21.70
2022-09-14T13:03:15.413Z,22.29
2022-09-14T13:05:45.038Z,22.31
2022-09-14T13:08:13.323Z,22.36
2022-09-14T13:10:49.244Z,22.52
2022-09-14T13:13:25.752Z,22.33
2022-09-14T13:16:05.368Z,22.08
2022-09-14T13:18:37.020Z,22.17
2022-09-14T13:21:24.023Z,22.11
2022-09-14T13:23:51.079Z,22.15
2022-09-14T13:26:27.009Z,22.15
2022-09-14T13:28:55.462Z,22.24
2022-09-14T13:31:35.663Z,22.25
2022-09-14T13:34:04.714Z,22.06
2022-09-14T13:36:35.736Z,22.09
2022-09-14T13:39:04.040Z,22.04
2022-09-14T13:41:32.284Z,22.23
2022-09-14T13:44:00.244Z,22.25
2022-09-14T13:46:28.190Z,22.40
2022-09-14T13:48:55.549Z,22.40
2022-09-14T13:51:25.365Z,22.55
2022-09-14T13:53:54.655Z,22.63
2022-09-14T13:57:07.689Z,22.75
2022-09-14T13:59:34.277Z,22.58
2022-09-14T14:02:03.142Z,22.55
2022-09-14T14:04:38.553Z,22.34
2022-09-14T14:07:18.782Z,22.05
2022-09-14T14:09:57.344Z,21.99
2022-09-14T14:12:32.199Z,21.82
2022-09-14T14:15:06.910Z,21.76
2022-09-14T14:17:37.063Z,21.67
2022-09-14T14:20:39.351Z,21.54
2022-09-14T14:23:06.455Z,21.45
2022-09-14T14:25:42.154Z,21.43
2022-09-14T14:28:21.832Z,21.40
2022-09-14T14:30:48.821Z,21.41
2022-09-14T14:33:21.047Z,21.41
2022-09-14T14:35:49.578Z,21.35
2022-09-14T14:38:36.868Z,21.28
2022-09-14T14:41:05.045Z,21.27
2022-09-14T14:43:35.039Z,21.22
2022-09-14T14:46:02.019Z,21.22
2022-09-14T14:48:32.989Z,21.20
2022-09-14T14:51:01.015Z,21.07
2022-09-14T14:53:29.521Z,20.95
2022-09-14T14:55:56.397Z,20.46
2022-09-14T14:58:23.952Z,20.01
2022-09-14T15:00:52.048Z,19.67
2022-09-14T15:03:19.761Z,19.48
2022-09-14T15:05:48.373Z,19.34
2022-09-14T15:24:04.773Z,19.65
2022-09-14T15:26:32.149Z,19.69
2022-09-14T15:29:00.089Z,19.64
2022-09-14T15:31:30.404Z,19.54
2022-09-14T15:33:58.500Z,19.50
2022-09-14T15:36:52.565Z,19.50
2022-09-14T15:39:25.941Z,19.55
2022-09-14T15:41:53.667Z,19.40
2022-09-14T15:44:20.885Z,19.37
2022-09-14T15:46:54.109Z,19.37
2022-09-14T15:49:23.614Z,19.40
2022-09-14T15:51:52.514Z,19.45
2022-09-14T15:54:23.336Z,19.43
2022-09-14T15:56:56.220Z,19.52
2022-09-14T15:59:23.363Z,19.50
2022-09-14T16:01:50.697Z,19.51
2022-09-14T16:04:18.362Z,19.53
2022-09-14T16:06:46.303Z,19.55
2022-09-14T16:09:15.130Z,19.63
2022-09-14T16:11:44.106Z,19.68
2022-09-14T16:14:12.158Z,19.78
2022-09-14T16:16:39.516Z,19.80
2022-09-14T16:19:16.117Z,19.79
2022-09-14T16:21:48.370Z,19.77
2022-09-14T16:24:20.004Z,19.78
2022-09-14T16:26:53.097Z,19.80
2022-09-14T16:29:22.204Z,19.81
2022-09-14T16:31:50.032Z,19.75
2022-09-14T16:34:22.295Z,19.78
2022-09-14T16:36:49.971Z,19.78
2022-09-14T16:39:23.695Z,19.83
2022-09-14T16:41:51.176Z,19.78
2022-09-14T16:44:21.345Z,19.76
2022-09-14T16:46:49.782Z,19.75
2022-09-14T16:49:25.026Z,19.70
2022-09-14T16:51:55.935Z,19.64
2022-09-14T16:54:25.645Z,19.62
2022-09-14T16:56:57.351Z,19.63
2022-09-14T16:59:24.716Z,19.58
2022-09-14T17:01:56.155Z,19.59
2022-09-14T17:09:54.545Z,19.39
2022-09-14T17:12:22.041Z,19.33
2022-09-14T17:14:52.074Z,19.31
2022-09-14T17:17:24.468Z,19.31
2022-09-14T17:19:52.079Z,19.31
2022-09-14T17:22:22.005Z,19.29
2022-09-14T17:25:03.491Z,19.28
2022-09-14T17:27:37.376Z,19.26
2022-09-14T17:35:56.540Z,19.17
2022-09-14T17:41:13.002Z,19.12
2022-09-14T17:43:41.387Z,19.13
2022-09-14T17:46:13.981Z,18.96
2022-09-14T17:48:43.926Z,18.86
2022-09-14T17:51:14.673Z,18.93
2022-09-14T17:53:46.127Z,18.85
2022-09-14T17:59:20.496Z,18.91
2022-09-14T18:01:49.745Z,18.96
2022-09-14T18:04:17.634Z,18.93
2022-09-14T18:06:50.391Z,18.93
2022-09-14T18:09:22.064Z,18.89
2022-09-14T18:11:50.210Z,18.92
2022-09-14T18:14:17.794Z,18.92
2022-09-14T18:16:45.610Z,18.89
2022-09-14T18:19:13.799Z,18.92
2022-09-14T18:21:41.589Z,18.94
2022-09-14T18:24:10.885Z,19.02
2022-09-14T18:26:39.065Z,19.01
2022-09-14T18:29:06.418Z,19.08
2022-09-14T18:31:34.560Z,19.07
2022-09-14T18:34:01.731Z,19.00
2022-09-14T18:36:30.154Z,18.98
2022-09-14T18:39:07.235Z,18.97
2022-09-14T18:41:35.062Z,18.98
2022-09-14T18:44:03.168Z,18.90
2022-09-14T18:46:40.687Z,18.93
2022-09-14T18:49:09.117Z,18.87
2022-09-14T18:51:36.190Z,18.80
2022-09-14T18:54:07.539Z,18.79
2022-09-14T18:56:39.767Z,18.78
2022-09-14T18:59:15.030Z,18.75
2022-09-14T19:01:55.806Z,18.73
2022-09-14T19:04:22.562Z,18.73
2022-09-14T19:06:49.959Z,18.76
2022-09-14T19:09:17.066Z,18.75
2022-09-14T19:11:43.904Z,18.72
2022-09-14T19:14:13.261Z,18.72
2022-09-14T19:16:41.482Z,18.72
2022-09-14T19:19:09.700Z,18.75
2022-09-14T19:21:36.441Z,18.70
2022-09-14T19:24:06.421Z,18.57
2022-09-14T19:26:41.145Z,18.48
2022-09-14T19:29:11.128Z,18.47
2022-09-14T19:31:37.810Z,18.48
2022-09-14T19:34:05.342Z,18.44
2022-09-14T19:36:34.817Z,18.32
2022-09-14T19:39:02.938Z,18.25
2022-09-14T19:41:34.140Z,18.17
2022-09-14T19:44:02.357Z,18.08
2022-09-14T19:46:31.250Z,18.03
2022-09-14T19:48:58.602Z,17.96
2022-09-14T19:51:27.904Z,17.95
2022-09-14T19:53:56.446Z,17.97
2022-09-14T19:56:25.866Z,18.07
2022-09-14T19:58:54.415Z,18.08
2022-09-14T20:01:23.288Z,18.06
2022-09-14T20:03:50.492Z,18.03
2022-09-14T20:06:21.217Z,17.93
2022-09-14T20:08:49.043Z,17.91
2022-09-14T20:11:19.945Z,17.84
2022-09-14T20:13:50.821Z,17.76
2022-09-14T20:16:26.367Z,17.72
2022-09-14T20:18:53.213Z,17.63
2022-09-14T20:21:23.667Z,17.64
2022-09-14T20:24:14.521Z,17.69
2022-09-14T20:26:42.299Z,17.86
2022-09-14T20:29:09.262Z,17.93
2022-09-14T20:31:36.011Z,18.01
2022-09-14T20:34:03.728Z,17.83
2022-09-14T20:36:30.958Z,17.86
2022-09-14T20:38:59.359Z,17.97
2022-09-14T20:41:33.330Z,17.97
2022-09-14T20:44:00.385Z,17.96
2022-09-14T20:46:31.760Z,17.85
2022-09-14T20:48:58.717Z,17.74
2022-09-14T20:51:25.698Z,17.76
2022-09-14T20:53:52.926Z,17.73
2022-09-14T20:56:23.118Z,17.67
2022-09-14T20:58:53.811Z,17.66
2022-09-14T21:01:22.975Z,17.65
2022-09-14T21:03:50.874Z,17.69
2022-09-14T21:06:23.942Z,17.64
2022-09-14T21:08:51.262Z,17.60
2022-09-14T21:11:24.949Z,17.55
2022-09-14T21:13:53.682Z,17.63
2022-09-14T21:16:25.024Z,17.63
2022-09-14T21:18:56.524Z,17.67
2022-09-14T21:21:23.888Z,17.68
2022-09-14T21:23:51.109Z,17.64
2022-09-14T21:26:20.086Z,17.63
2022-09-14T21:28:47.275Z,17.63
2022-09-14T21:31:16.812Z,17.57
2022-09-14T21:33:46.790Z,17.54
2022-09-14T21:36:15.217Z,17.52
2022-09-14T21:38:53.389Z,17.47
2022-09-14T21:41:22.191Z,17.48
2022-09-14T21:43:49.677Z,17.44
2022-09-14T21:46:17.873Z,17.44
2022-09-14T21:48:45.277Z,17.42
2022-09-14T21:51:22.971Z,17.39
2022-09-14T21:53:53.113Z,17.35
2022-09-14T21:56:26.505Z,17.32
2022-09-14T21:58:55.543Z,17.33
2022-09-14T22:01:25.286Z,17.37
2022-09-14T22:03:56.536Z,17.31
2022-09-14T22:06:26.016Z,17.28
2022-09-14T22:08:53.303Z,17.28
2022-09-14T22:11:23.436Z,17.23
2022-09-14T22:14:00.669Z,17.20
2022-09-14T22:16:28.029Z,17.23
2022-09-14T22:19:00.098Z,17.31
2022-09-14T22:21:28.885Z,17.30
2022-09-14T22:24:02.453Z,17.31
2022-09-14T22:26:32.311Z,17.18
2022-09-14T22:28:59.986Z,17.10
2022-09-14T22:31:28.587Z,16.98
2022-09-14T22:34:00.832Z,17.10
2022-09-14T22:36:27.830Z,17.07
2022-09-14T22:39:01.803Z,17.12
2022-09-14T22:41:30.395Z,17.11
2022-09-14T22:43:57.388Z,17.11
2022-09-14T22:46:25.150Z,17.11
2022-09-14T22:48:52.931Z,17.19
2022-09-14T22:51:25.356Z,17.16
2022-09-14T22:53:53.325Z,17.20
2022-09-14T22:56:23.283Z,17.28
2022-09-14T22:58:50.522Z,17.36
2022-09-14T23:01:24.007Z,17.41
2022-09-14T23:03:58.653Z,17.43
2022-09-14T23:06:27.731Z,17.51
2022-09-14T23:08:54.417Z,17.49
2022-09-14T23:11:21.133Z,17.61
2022-09-14T23:13:47.757Z,17.63
2022-09-14T23:16:19.441Z,17.58
2022-09-14T23:18:53.174Z,17.61
2022-09-14T23:21:20.726Z,17.76
2022-09-14T23:23:55.455Z,17.75
2022-09-14T23:26:23.144Z,17.77
2022-09-14T23:28:59.114Z,17.79
2022-09-14T23:31:26.530Z,17.84
2022-09-14T23:33:55.247Z,17.83
2022-09-14T23:36:23.126Z,17.87
2022-09-14T23:38:50.545Z,17.94
2022-09-14T23:41:19.194Z,17.90
2022-09-14T23:43:46.772Z,17.83
2022-09-14T23:46:14.073Z,17.80
2022-09-14T23:48:40.887Z,17.66
2022-09-14T23:51:09.084Z,17.55
2022-09-14T23:53:36.554Z,17.51
2022-09-14T23:56:04.080Z,17.51
2022-09-14T23:58:31.258Z,17.44
